Time;durP1;ratioP1;P1;durP2;ratioP2;P2;SDS_P1;SDS_P2;PMS_P1;PMS_P2;Temp;Humidity;BMP_temperature;BMP_pressure;BME280_temperature;BME280_humidity;BME280_pressure;Samples;Min_cycle;Max_cycle;Signal;HPM_P1;HPM_P2
2022/05/06 00:01:16;;;;;;;5.97;4.60;;;15.30;94.50;;;;;;4154897;28;20500;-61
2022/05/06 00:03:17;;;;;;;6.45;4.65;;;15.30;94.20;;;;;;4153930;28;20124;-62
2022/05/06 00:05:18;;;;;;;9.52;4.82;;;15.30;94.60;;;;;;4158612;28;20030;-61
2022/05/06 00:07:18;;;;;;;5.70;4.45;;;15.30;94.30;;;;;;4156313;28;20516;-63
2022/05/06 00:09:19;;;;;;;6.00;4.50;;;15.30;94.30;;;;;;4156199;28;20038;-62
2022/05/06 00:11:19;;;;;;;6.35;4.30;;;15.30;93.80;;;;;;4159278;28;20030;-63
2022/05/06 00:13:20;;;;;;;6.93;4.82;;;15.20;94.00;;;;;;4159352;28;20037;-63
2022/05/06 00:15:21;;;;;;;6.05;4.45;;;15.20;93.30;;;;;;4159417;28;20033;-62
2022/05/06 00:17:22;;;;;;;6.65;4.38;;;15.00;92.40;;;;;;4159975;28;20029;-63
2022/05/06 00:19:22;;;;;;;5.15;4.28;;;15.10;93.00;;;;;;4158311;28;20030;-63
2022/05/06 00:21:23;;;;;;;6.28;4.80;;;15.00;93.60;;;;;;4158843;28;20034;-62
2022/05/06 00:23:24;;;;;;;7.50;4.90;;;14.90;93.90;;;;;;4158742;28;20049;-62
2022/05/06 00:25:25;;;;;;;7.50;4.90;;;14.90;94.70;;;;;;4159444;28;20037;-62
2022/05/06 00:27:25;;;;;;;6.05;5.22;;;14.80;94.80;;;;;;4159073;28;20396;-62
2022/05/06 00:29:26;;;;;;;6.68;5.07;;;14.80;94.60;;;;;;4158065;28;20424;-61
2022/05/06 00:31:26;;;;;;;6.45;5.03;;;14.80;94.90;;;;;;4158035;28;20034;-62
2022/05/06 00:33:28;;;;;;;8.02;5.22;;;14.80;95.10;;;;;;4160420;28;20057;-62
2022/05/06 00:35:28;;;;;;;8.50;5.15;;;14.70;94.90;;;;;;4158880;28;20056;-61
2022/05/06 00:37:29;;;;;;;6.70;4.82;;;14.80;94.90;;;;;;4158067;28;20423;-61
2022/05/06 00:39:29;;;;;;;6.32;4.80;;;14.70;95.20;;;;;;4156801;28;20517;-62
2022/05/06 00:41:34;;;;;;;7.65;5.57;;;14.70;95.00;;;;;;4158871;28;20049;-62
2022/05/06 00:43:40;;;;;;;7.03;5.25;;;14.70;95.10;;;;;;4159291;28;20030;-62
2022/05/06 00:45:59;;;;;;;7.10;5.43;;;14.60;94.70;;;;;;4156247;28;20034;-61
2022/05/06 00:48:00;;;;;;;8.65;5.32;;;14.60;94.90;;;;;;4155702;28;20031;-62
2022/05/06 00:50:01;;;;;;;8.43;5.45;;;14.60;94.70;;;;;;4157952;28;20485;-62
2022/05/06 00:52:04;;;;;;;9.07;4.97;;;14.60;95.10;;;;;;4155908;28;20436;-62
2022/05/06 00:54:06;;;;;;;7.15;4.93;;;14.60;95.00;;;;;;4159935;28;20604;-62
2022/05/06 00:56:11;;;;;;;7.18;5.15;;;14.50;94.80;;;;;;4156413;28;20029;-62
2022/05/06 00:58:14;;;;;;;9.05;4.90;;;14.60;94.50;;;;;;4158595;28;20080;-62
2022/05/06 01:00:18;;;;;;;5.75;4.85;;;14.50;94.30;;;;;;4157213;28;20125;-63
2022/05/06 01:02:20;;;;;;;5.93;4.82;;;14.60;94.40;;;;;;4156378;28;20379;-62
2022/05/06 01:04:22;;;;;;;7.38;5.25;;;14.50;94.80;;;;;;4159648;28;20116;-63
2022/05/06 01:06:24;;;;;;;8.25;5.20;;;14.50;94.10;;;;;;4160440;28;20496;-62
2022/05/06 01:08:25;;;;;;;7.50;4.90;;;14.50;94.30;;;;;;4154586;28;20092;-62
2022/05/06 01:10:25;;;;;;;6.93;5.45;;;14.50;94.70;;;;;;4160272;28;20168;-62
2022/05/06 01:12:26;;;;;;;8.82;5.25;;;14.40;95.00;;;;;;4153665;28;20052;-62
2022/05/06 01:14:34;;;;;;;10.50;5.70;;;14.40;95.50;;;;;;4160245;28;20030;-62
2022/05/06 01:16:35;;;;;;;8.43;5.82;;;14.40;96.00;;;;;;4157648;28;20063;-62
2022/05/06 01:18:36;;;;;;;8.32;5.40;;;14.40;95.00;;;;;;4158632;28;20033;-62
2022/05/06 01:20:42;;;;;;;9.05;5.90;;;14.30;95.70;;;;;;4157690;28;20385;-62
2022/05/06 01:23:04;;;;;;;8.70;5.57;;;14.40;96.40;;;;;;4159146;28;20422;-62
2022/05/06 01:25:05;;;;;;;7.30;5.40;;;14.30;95.10;;;;;;4155860;28;20034;-64
2022/05/06 01:27:14;;;;;;;8.95;5.50;;;14.30;95.40;;;;;;4159080;28;20068;-62
2022/05/06 01:29:16;;;;;;;8.98;6.05;;;14.30;94.80;;;;;;4157131;28;20060;-63
2022/05/06 01:31:24;;;;;;;9.13;6.65;;;14.30;95.00;;;;;;4154892;28;20034;-62
2022/05/06 01:33:26;;;;;;;10.73;6.07;;;14.30;95.40;;;;;;4156957;28;20493;-61
2022/05/06 01:35:31;;;;;;;9.15;6.47;;;14.30;95.20;;;;;;4159968;28;20404;-62
2022/05/06 01:37:34;;;;;;;10.75;6.22;;;14.30;95.20;;;;;;4155209;28;20056;-62
2022/05/06 01:39:36;;;;;;;8.20;5.82;;;14.30;95.20;;;;;;4159230;28;20033;-62
2022/05/06 01:41:38;;;;;;;7.53;5.85;;;14.20;95.30;;;;;;4157187;28;20068;-62
2022/05/06 01:43:46;;;;;;;13.55;6.68;;;14.20;95.80;;;;;;4157811;28;20037;-62
2022/05/06 01:45:48;;;;;;;9.88;6.32;;;14.20;95.30;;;;;;4155956;28;20026;-62
2022/05/06 01:47:51;;;;;;;8.20;6.05;;;14.20;95.80;;;;;;4157471;28;20037;-62
2022/05/06 01:49:58;;;;;;;10.05;6.07;;;14.20;96.70;;;;;;4159728;28;20542;-63
2022/05/06 01:51:59;;;;;;;8.10;6.30;;;14.20;96.60;;;;;;4157146;28;20041;-62
2022/05/06 01:54:00;;;;;;;8.63;6.20;;;14.10;96.70;;;;;;4158054;28;20124;-62
2022/05/06 01:56:02;;;;;;;8.70;6.28;;;14.20;96.30;;;;;;4156416;28;20041;-62
2022/05/06 01:58:04;;;;;;;7.85;6.10;;;14.20;96.20;;;;;;4158180;28;20088;-62
2022/05/06 02:00:06;;;;;;;8.32;5.93;;;14.10;96.20;;;;;;4156708;28;20049;-67
2022/05/06 02:02:06;;;;;;;9.05;6.47;;;14.10;96.50;;;;;;4156161;28;20049;-62
2022/05/06 02:06:26;;;;;;;8.52;6.28;;;14.10;95.40;;;;;;4157179;28;20038;-62
2022/05/06 02:08:27;;;;;;;10.20;6.47;;;14.10;95.00;;;;;;4157386;28;20095;-62
2022/05/06 02:10:28;;;;;;;8.80;6.18;;;14.10;94.80;;;;;;4158029;28;20046;-62
2022/05/06 02:12:28;;;;;;;7.65;5.78;;;14.10;95.30;;;;;;4159625;28;20033;-62
2022/05/06 02:14:29;;;;;;;9.13;6.05;;;14.00;95.40;;;;;;4156713;28;20048;-61
2022/05/06 02:16:30;;;;;;;9.20;5.88;;;14.00;95.60;;;;;;4156361;28;20044;-62
2022/05/06 02:18:30;;;;;;;9.95;6.35;;;14.00;95.60;;;;;;4156910;28;20447;-62
2022/05/06 02:20:31;;;;;;;9.02;5.75;;;14.00;95.60;;;;;;4156685;28;20073;-62
2022/05/06 02:22:33;;;;;;;8.98;6.43;;;13.90;95.60;;;;;;4155580;28;20155;-62
2022/05/06 02:24:33;;;;;;;10.23;6.70;;;13.90;95.90;;;;;;4154829;28;20113;-62
2022/05/06 02:26:34;;;;;;;9.63;6.78;;;13.80;96.40;;;;;;4155588;28;20037;-62
2022/05/06 02:28:34;;;;;;;10.13;7.22;;;13.80;96.70;;;;;;4155286;28;20045;-63
2022/05/06 02:33:12;;;;;;;10.63;7.40;;;13.80;96.60;;;;;;4156068;28;20448;-61
2022/05/06 02:35:13;;;;;;;10.68;7.43;;;13.70;96.80;;;;;;4155068;28;20049;-63
2022/05/06 02:37:13;;;;;;;11.45;7.40;;;13.70;97.60;;;;;;4156316;28;20041;-62
2022/05/06 02:39:14;;;;;;;9.82;7.20;;;13.70;98.10;;;;;;4156235;28;20038;-61
2022/05/06 02:41:15;;;;;;;10.82;7.55;;;13.70;98.00;;;;;;4155618;28;20460;-62
2022/05/06 02:43:17;;;;;;;12.63;7.80;;;13.70;98.00;;;;;;4150155;28;20038;-63
2022/05/06 02:45:18;;;;;;;11.57;7.60;;;13.70;97.50;;;;;;4156842;28;20400;-62
2022/05/06 02:47:18;;;;;;;9.90;7.18;;;13.70;97.60;;;;;;4156233;28;21071;-62
2022/05/06 02:49:19;;;;;;;13.38;8.75;;;13.80;97.70;;;;;;4155726;28;20030;-62
2022/05/06 02:51:19;;;;;;;14.05;7.97;;;13.70;97.10;;;;;;4156402;28;20112;-62
2022/05/06 02:53:21;;;;;;;12.98;8.52;;;13.70;97.40;;;;;;4152186;28;20042;-62
2022/05/06 02:55:23;;;;;;;11.23;7.60;;;13.70;97.20;;;;;;4156847;28;20068;-62
2022/05/06 02:57:24;;;;;;;13.02;7.95;;;13.70;96.50;;;;;;4151308;28;20120;-63
2022/05/06 02:59:24;;;;;;;10.80;7.25;;;13.60;96.00;;;;;;4154736;28;20037;-62
2022/05/06 03:01:25;;;;;;;10.65;7.05;;;13.60;96.10;;;;;;4155072;28;20503;-61
2022/05/06 03:03:25;;;;;;;13.32;7.88;;;13.60;95.90;;;;;;4153260;28;20406;-62
2022/05/06 03:05:26;;;;;;;10.88;7.07;;;13.60;96.10;;;;;;4153886;28;20029;-63
2022/05/06 03:07:27;;;;;;;11.05;7.18;;;13.60;96.30;;;;;;4156856;28;20026;-62
2022/05/06 03:09:27;;;;;;;9.88;7.13;;;13.50;96.10;;;;;;4152407;28;20022;-62
2022/05/06 03:11:28;;;;;;;11.15;7.22;;;13.50;96.00;;;;;;4147966;28;20093;-62
2022/05/06 03:13:29;;;;;;;10.10;6.82;;;13.40;97.10;;;;;;4156193;28;20033;-61
2022/05/06 03:15:30;;;;;;;13.40;7.20;;;13.40;97.10;;;;;;4148573;28;20144;-62
2022/05/06 03:17:31;;;;;;;12.15;7.43;;;13.40;97.50;;;;;;4154723;28;20080;-62
2022/05/06 03:19:32;;;;;;;11.30;7.25;;;13.40;97.70;;;;;;4152255;28;20382;-62
2022/05/06 03:21:34;;;;;;;12.10;8.55;;;13.40;97.70;;;;;;4154603;28;20083;-62
2022/05/06 03:23:35;;;;;;;13.63;8.15;;;13.30;97.30;;;;;;4154168;28;20187;-62
2022/05/06 03:25:35;;;;;;;11.25;7.47;;;13.30;97.30;;;;;;4154419;28;20078;-61
2022/05/06 03:29:56;;;;;;;12.10;7.85;;;13.30;97.50;;;;;;4155253;28;20029;-64
2022/05/06 03:31:57;;;;;;;13.05;7.97;;;13.20;97.40;;;;;;4156901;28;20039;-63
2022/05/06 03:33:58;;;;;;;10.57;7.47;;;13.20;97.70;;;;;;4158134;28;20029;-60
2022/05/06 03:35:59;;;;;;;9.60;7.07;;;13.20;97.60;;;;;;4151968;28;20034;-62
2022/05/06 03:38:00;;;;;;;10.30;7.40;;;13.20;97.30;;;;;;4154713;28;20042;-62
2022/05/06 03:40:00;;;;;;;10.77;7.50;;;13.20;97.60;;;;;;4150367;28;20451;-61
2022/05/06 03:42:02;;;;;;;11.63;8.00;;;13.20;97.70;;;;;;4153471;28;20045;-61
2022/05/06 03:44:03;;;;;;;14.32;8.32;;;13.20;97.70;;;;;;4149386;28;20041;-62
2022/05/06 03:46:03;;;;;;;11.25;8.40;;;13.10;97.60;;;;;;4150596;28;20500;-62
2022/05/06 03:48:05;;;;;;;14.38;9.93;;;13.10;97.50;;;;;;4155881;28;20486;-61
2022/05/06 03:52:25;;;;;;;14.10;9.13;;;13.10;97.30;;;;;;4158069;28;20046;-60
2022/05/06 03:54:26;;;;;;;15.18;9.13;;;13.10;97.70;;;;;;4156080;28;20120;-62
2022/05/06 03:56:27;;;;;;;12.23;9.13;;;13.10;97.70;;;;;;4155151;28;20033;-59
2022/05/06 03:58:28;;;;;;;14.35;9.32;;;13.20;98.00;;;;;;4157292;28;20502;-61
2022/05/06 04:00:28;;;;;;;12.77;8.48;;;13.10;97.90;;;;;;4156740;28;20038;-62
2022/05/06 04:02:29;;;;;;;11.23;7.70;;;13.20;98.20;;;;;;4156631;28;20056;-61
2022/05/06 04:04:30;;;;;;;12.60;8.25;;;13.10;98.30;;;;;;4154836;28;20032;-61
2022/05/06 04:06:30;;;;;;;13.18;8.48;;;13.10;97.90;;;;;;4153688;28;20385;-60
2022/05/06 04:08:32;;;;;;;14.45;9.15;;;13.10;98.00;;;;;;4153114;28;20409;-61
2022/05/06 04:10:32;;;;;;;12.95;8.82;;;13.10;98.20;;;;;;4152657;28;20480;-61
2022/05/06 04:12:33;;;;;;;13.45;9.10;;;13.10;98.50;;;;;;4155665;28;20045;-61
2022/05/06 04:14:34;;;;;;;16.85;10.60;;;13.00;98.40;;;;;;4153650;28;20029;-62
2022/05/06 04:16:35;;;;;;;15.73;10.60;;;13.00;98.60;;;;;;4150424;28;20037;-62
2022/05/06 04:18:35;;;;;;;15.27;9.82;;;13.10;98.30;;;;;;4157088;28;20053;-61
2022/05/06 04:25:15;;;;;;;18.08;10.88;;;13.00;99.10;;;;;;4151323;28;20065;-62
2022/05/06 04:27:15;;;;;;;18.08;11.32;;;13.00;99.30;;;;;;4152557;28;20044;-62
2022/05/06 04:29:17;;;;;;;15.15;10.85;;;13.00;99.50;;;;;;4156322;28;20069;-61
2022/05/06 04:31:17;;;;;;;19.20;11.85;;;13.00;99.70;;;;;;4154663;28;20040;-61
2022/05/06 04:33:19;;;;;;;17.42;11.48;;;13.00;99.20;;;;;;4157549;28;20469;-60
2022/05/06 04:35:19;;;;;;;18.20;11.73;;;13.00;99.80;;;;;;4152204;28;20033;-61
2022/05/06 04:37:20;;;;;;;19.65;12.90;;;13.10;99.90;;;;;;4155033;28;20478;-62
2022/05/06 04:39:21;;;;;;;19.58;11.95;;;13.10;99.90;;;;;;4154857;28;20125;-60
2022/05/06 04:41:21;;;;;;;18.95;12.20;;;13.10;99.90;;;;;;4156497;28;20041;-62
2022/05/06 04:43:22;;;;;;;19.75;12.02;;;13.10;99.90;;;;;;4155633;28;20034;-61
2022/05/06 04:45:23;;;;;;;18.83;11.68;;;13.10;99.90;;;;;;4153299;28;20119;-61
2022/05/06 04:47:23;;;;;;;19.05;12.75;;;13.10;99.90;;;;;;4156399;28;20492;-62
2022/05/06 04:49:24;;;;;;;16.60;11.18;;;13.10;99.90;;;;;;4157433;28;20510;-62
2022/05/06 04:51:25;;;;;;;18.58;12.20;;;13.10;99.90;;;;;;4157596;28;20048;-62
2022/05/06 04:53:25;;;;;;;14.98;9.60;;;13.20;99.90;;;;;;4159080;28;20037;-61
2022/05/06 04:55:26;;;;;;;16.95;10.98;;;13.20;99.90;;;;;;4159079;28;20428;-62
2022/05/06 04:57:26;;;;;;;17.65;10.57;;;13.20;99.90;;;;;;4158351;28;20076;-62
2022/05/06 04:59:27;;;;;;;15.10;9.27;;;13.20;99.90;;;;;;4158773;28;20041;-63
2022/05/06 05:01:28;;;;;;;17.15;10.23;;;13.20;99.90;;;;;;4157131;28;20099;-63
2022/05/06 05:03:28;;;;;;;14.27;9.88;;;13.20;99.90;;;;;;4159766;28;20029;-62
2022/05/06 05:05:29;;;;;;;15.32;10.15;;;13.20;99.90;;;;;;4154966;28;20041;-62
2022/05/06 05:07:30;;;;;;;16.10;10.13;;;13.20;99.90;;;;;;4157786;28;20097;-62
2022/05/06 05:09:31;;;;;;;15.27;9.32;;;13.30;99.90;;;;;;4158420;28;20050;-62
2022/05/06 05:11:34;;;;;;;15.43;9.05;;;13.30;99.90;;;;;;4158227;28;20030;-63
2022/05/06 05:13:34;;;;;;;14.70;9.63;;;13.30;99.90;;;;;;4158482;28;20037;-63
2022/05/06 05:15:35;;;;;;;14.95;9.52;;;13.30;99.90;;;;;;4158350;28;20037;-60
2022/05/06 05:17:36;;;;;;;13.13;9.23;;;13.40;99.90;;;;;;4159407;28;20038;-62
2022/05/06 05:19:37;;;;;;;15.90;10.32;;;13.40;99.90;;;;;;4158399;28;20032;-62
2022/05/06 05:21:37;;;;;;;15.95;9.80;;;13.40;99.90;;;;;;4155035;28;20033;-62
2022/05/06 05:23:38;;;;;;;14.30;9.85;;;13.40;99.90;;;;;;4154119;28;20022;-62
2022/05/06 05:25:38;;;;;;;15.52;10.63;;;13.40;99.90;;;;;;4154890;28;20426;-62
2022/05/06 05:27:40;;;;;;;15.50;10.73;;;13.40;99.90;;;;;;4157781;28;20038;-62
2022/05/06 05:29:41;;;;;;;17.80;11.63;;;13.40;99.90;;;;;;4159834;28;20499;-64
2022/05/06 05:31:43;;;;;;;17.17;10.93;;;13.50;99.90;;;;;;4159496;28;20396;-62
2022/05/06 05:33:43;;;;;;;19.60;11.80;;;13.50;99.90;;;;;;4160447;28;20083;-62
2022/05/06 05:35:44;;;;;;;17.88;11.60;;;13.60;99.90;;;;;;4155013;28;20026;-62
2022/05/06 05:37:45;;;;;;;22.00;13.43;;;13.60;99.90;;;;;;4157238;28;20503;-62
2022/05/06 05:39:45;;;;;;;19.45;12.60;;;13.70;99.90;;;;;;4157566;28;20056;-62
2022/05/06 05:41:46;;;;;;;21.55;12.98;;;13.70;99.90;;;;;;4154258;28;20037;-62
2022/05/06 05:48:25;;;;;;;22.85;14.55;;;13.80;99.90;;;;;;4159865;28;20539;-61
2022/05/06 05:50:27;;;;;;;23.55;15.02;;;13.80;99.90;;;;;;4152715;28;20046;-63
2022/05/06 05:52:28;;;;;;;23.75;14.80;;;13.90;99.90;;;;;;4151131;28;20496;-62
2022/05/06 05:54:29;;;;;;;24.50;15.25;;;13.90;99.90;;;;;;4152547;28;20116;-62
2022/05/06 05:56:30;;;;;;;23.55;15.15;;;14.00;99.90;;;;;;4154977;28;20030;-63
2022/05/06 05:58:33;;;;;;;26.67;16.63;;;14.10;99.90;;;;;;4157064;28;20443;-63
2022/05/06 06:00:33;;;;;;;30.10;17.83;;;14.10;99.90;;;;;;4156263;28;20160;-62
2022/05/06 06:02:34;;;;;;;28.27;18.08;;;14.10;99.90;;;;;;4157063;28;20048;-63
2022/05/06 06:04:35;;;;;;;33.17;19.45;;;14.20;99.90;;;;;;4151878;28;20041;-62
2022/05/06 06:06:35;;;;;;;27.20;17.73;;;14.20;99.90;;;;;;4153301;28;20138;-63
2022/05/06 06:08:36;;;;;;;27.77;18.58;;;14.20;99.90;;;;;;4170463;28;20033;-63
2022/05/06 06:10:37;;;;;;;34.17;20.77;;;14.30;99.90;;;;;;4153984;28;20057;-62
2022/05/06 06:12:39;;;;;;;31.38;19.75;;;14.40;99.90;;;;;;4152601;28;20052;-63
2022/05/06 06:14:40;;;;;;;32.45;20.20;;;14.40;99.90;;;;;;4154190;28;20466;-63
2022/05/06 06:16:40;;;;;;;34.55;20.92;;;14.50;99.90;;;;;;4150427;28;20119;-63
2022/05/06 06:18:41;;;;;;;32.47;20.73;;;14.60;99.90;;;;;;4155929;28;20397;-63
2022/05/06 06:20:42;;;;;;;31.50;19.67;;;14.70;99.90;;;;;;4155372;28;20085;-63
2022/05/06 06:22:42;;;;;;;31.42;21.13;;;15.00;99.90;;;;;;4155915;28;20041;-64
2022/05/06 06:24:43;;;;;;;30.02;19.58;;;15.20;99.90;;;;;;4155750;28;20718;-63
2022/05/06 06:26:43;;;;;;;28.50;18.40;;;15.50;99.90;;;;;;4154288;28;20036;-63
2022/05/06 06:28:44;;;;;;;28.58;19.33;;;15.80;99.90;;;;;;4156246;28;20042;-63
2022/05/06 06:30:44;;;;;;;31.77;20.02;;;16.10;99.90;;;;;;4155971;28;20080;-64
2022/05/06 06:32:45;;;;;;;27.98;18.25;;;16.50;99.90;;;;;;4153348;28;20076;-63
2022/05/06 06:34:46;;;;;;;25.27;17.63;;;16.80;99.90;;;;;;4157364;28;20480;-64
2022/05/06 06:36:46;;;;;;;31.83;20.15;;;17.20;99.90;;;;;;4155119;28;20867;-64
2022/05/06 06:38:47;;;;;;;27.90;17.55;;;17.40;99.90;;;;;;4156177;28;20390;-64
2022/05/06 06:40:47;;;;;;;24.55;16.38;;;17.70;99.90;;;;;;4152777;28;20045;-64
2022/05/06 06:42:48;;;;;;;25.20;17.10;;;18.00;99.90;;;;;;4152907;28;20037;-63
2022/05/06 06:44:49;;;;;;;27.13;17.80;;;18.20;99.90;;;;;;4153753;28;20037;-65
2022/05/06 06:46:51;;;;;;;25.88;17.10;;;18.50;99.90;;;;;;4153417;28;20041;-64
2022/05/06 06:48:52;;;;;;;25.17;17.52;;;18.80;99.90;;;;;;4154076;28;20063;-64
2022/05/06 06:50:52;;;;;;;27.05;17.20;;;18.90;99.80;;;;;;4154169;28;20038;-64
2022/05/06 06:52:53;;;;;;;25.48;16.38;;;19.10;99.60;;;;;;4145662;28;20046;-64
2022/05/06 06:54:54;;;;;;;25.30;16.65;;;19.20;98.80;;;;;;4149258;28;20044;-64
2022/05/06 06:56:54;;;;;;;26.77;17.65;;;19.40;98.70;;;;;;4153853;28;20496;-64
2022/05/06 06:58:55;;;;;;;21.90;15.45;;;19.50;97.80;;;;;;4155622;28;20045;-63
2022/05/06 07:00:56;;;;;;;24.63;15.75;;;19.60;97.90;;;;;;4155237;28;20117;-64
2022/05/06 07:02:57;;;;;;;28.08;17.90;;;19.70;97.40;;;;;;4154580;28;20076;-64
2022/05/06 07:04:58;;;;;;;27.52;16.40;;;19.80;97.00;;;;;;4155560;28;20037;-64
2022/05/06 07:11:53;;;;;;;23.08;15.40;;;20.00;96.00;;;;;;4154041;28;20681;-64
2022/05/06 07:13:53;;;;;;;25.90;16.73;;;20.10;95.80;;;;;;4153126;28;20452;-64
2022/05/06 07:15:54;;;;;;;20.27;14.13;;;20.10;95.80;;;;;;4153774;28;20071;-65
2022/05/06 07:17:54;;;;;;;25.77;15.40;;;20.20;95.50;;;;;;4152843;28;20041;-64
2022/05/06 07:19:55;;;;;;;23.73;14.30;;;20.30;94.90;;;;;;4150820;28;20041;-64
2022/05/06 07:21:55;;;;;;;21.40;15.02;;;20.30;94.80;;;;;;4155427;28;20112;-64
2022/05/06 07:23:56;;;;;;;24.35;16.90;;;20.40;94.90;;;;;;4153256;28;20045;-65
2022/05/06 07:25:57;;;;;;;22.88;15.43;;;20.40;95.10;;;;;;4153136;28;20046;-64
2022/05/06 07:27:57;;;;;;;22.40;14.70;;;20.50;95.00;;;;;;4153108;28;20033;-64
2022/05/06 07:29:58;;;;;;;22.40;14.13;;;20.50;94.50;;;;;;4156318;28;20033;-64
2022/05/06 07:31:58;;;;;;;24.48;15.80;;;20.60;94.50;;;;;;4156823;28;20042;-64
2022/05/06 07:33:59;;;;;;;24.35;14.30;;;20.70;94.70;;;;;;4154481;28;20038;-64
2022/05/06 07:35:59;;;;;;;22.73;14.18;;;20.80;94.50;;;;;;4151967;28;20432;-66
2022/05/06 07:38:00;;;;;;;23.50;15.23;;;20.80;94.10;;;;;;4156380;28;20030;-64
2022/05/06 07:40:02;;;;;;;23.90;15.52;;;20.90;93.70;;;;;;4157779;28;20049;-63
2022/05/06 07:42:03;;;;;;;23.33;13.43;;;20.90;93.70;;;;;;4156223;28;20593;-64
2022/05/06 07:44:04;;;;;;;18.98;12.35;;;21.00;94.30;;;;;;4157432;28;20038;-62
2022/05/06 07:46:05;;;;;;;19.40;13.30;;;21.10;93.50;;;;;;4156442;28;20037;-64
2022/05/06 07:48:08;;;;;;;19.67;13.45;;;21.10;93.10;;;;;;4154614;28;20028;-64
2022/05/06 07:50:09;;;;;;;18.52;12.27;;;21.20;93.50;;;;;;4153873;28;20042;-65
2022/05/06 07:52:09;;;;;;;16.77;11.93;;;21.30;93.30;;;;;;4155395;28;20501;-64
2022/05/06 07:54:10;;;;;;;18.17;12.18;;;21.30;92.40;;;;;;4154431;28;20376;-65
2022/05/06 07:56:11;;;;;;;16.45;11.70;;;21.40;92.50;;;;;;4153192;28;20033;-64
2022/05/06 07:58:12;;;;;;;15.50;11.48;;;21.40;92.30;;;;;;4154542;28;20042;-65
2022/05/06 08:00:13;;;;;;;17.60;12.15;;;21.40;92.30;;;;;;4153081;28;20037;-64
2022/05/06 08:04:33;;;;;;;17.90;12.82;;;21.50;92.60;;;;;;4155848;28;20041;-65
2022/05/06 08:06:33;;;;;;;18.60;12.10;;;21.50;92.60;;;;;;4155450;28;20115;-64
2022/05/06 08:08:34;;;;;;;17.73;12.18;;;21.60;92.60;;;;;;4157729;28;20041;-64
2022/05/06 08:10:35;;;;;;;18.83;12.70;;;21.70;92.00;;;;;;4156545;28;20034;-64
2022/05/06 08:12:35;;;;;;;18.00;12.43;;;21.70;91.50;;;;;;4157340;28;20034;-64
2022/05/06 08:14:36;;;;;;;17.40;11.68;;;21.70;91.70;;;;;;4155848;28;20040;-64
2022/05/06 08:16:37;;;;;;;17.90;12.60;;;21.80;91.80;;;;;;4155124;28;20030;-64
2022/05/06 08:18:37;;;;;;;15.13;11.10;;;21.90;91.80;;;;;;4157707;28;20503;-65
2022/05/06 08:20:39;;;;;;;17.42;12.10;;;22.00;91.40;;;;;;4158492;28;20365;-64
2022/05/06 08:22:40;;;;;;;17.58;11.38;;;22.00;91.70;;;;;;4155101;28;20057;-64
2022/05/06 08:24:41;;;;;;;18.90;12.88;;;22.10;91.30;;;;;;4156368;28;20516;-64
2022/05/06 08:26:43;;;;;;;21.95;13.30;;;22.10;91.30;;;;;;4157904;28;20159;-64
2022/05/06 08:28:44;;;;;;;21.10;13.05;;;22.20;91.40;;;;;;4158305;28;21210;-64
2022/05/06 08:30:49;;;;;;;19.27;12.13;;;22.20;90.60;;;;;;4156923;28;20076;-64
2022/05/06 08:32:51;;;;;;;17.95;11.70;;;22.20;89.60;;;;;;4156505;28;20045;-67
2022/05/06 08:34:51;;;;;;;16.55;11.52;;;22.20;90.70;;;;;;4156938;28;20038;-65
2022/05/06 08:36:52;;;;;;;15.73;11.15;;;22.20;90.10;;;;;;4158453;28;20558;-64
2022/05/06 08:38:53;;;;;;;15.55;11.38;;;22.30;89.80;;;;;;4156725;28;20045;-64
2022/05/06 08:40:53;;;;;;;18.02;11.98;;;22.30;90.70;;;;;;4158411;28;20048;-64
2022/05/06 08:42:55;;;;;;;22.10;12.77;;;22.40;90.40;;;;;;4154310;28;20562;-64
2022/05/06 08:52:01;;;;;;;20.33;13.68;;;22.50;90.40;;;;;;4154610;28;20096;-64
2022/05/06 08:54:02;;;;;;;21.95;13.77;;;22.50;89.00;;;;;;4156538;28;20034;-65
2022/05/06 08:56:03;;;;;;;21.10;12.40;;;22.50;90.10;;;;;;4155609;28;20026;-64
2022/05/06 08:58:05;;;;;;;16.98;11.82;;;22.50;89.70;;;;;;4156402;28;20514;-64
2022/05/06 09:00:09;;;;;;;15.35;11.38;;;22.60;88.50;;;;;;4157356;28;20083;-65
2022/05/06 09:02:11;;;;;;;19.83;12.63;;;22.60;88.60;;;;;;4154602;28;20091;-64
2022/05/06 09:04:12;;;;;;;20.37;13.90;;;22.60;89.70;;;;;;4155357;28;20041;-64
2022/05/06 09:06:21;;;;;;;20.65;14.15;;;22.70;88.20;;;;;;4156749;28;20036;-64
2022/05/06 09:08:22;;;;;;;22.35;14.55;;;22.70;89.10;;;;;;4154916;28;20041;-64
2022/05/06 09:10:23;;;;;;;17.90;11.57;;;22.70;89.00;;;;;;4156799;28;20044;-65
2022/05/06 09:12:42;;;;;;;22.23;13.18;;;22.70;88.80;;;;;;4155257;28;20048;-65
2022/05/06 09:17:18;;;;;;;19.55;12.65;;;22.80;88.20;;;;;;4154970;28;20037;-64
2022/05/06 09:19:25;;;;;;;24.50;13.57;;;22.80;87.80;;;;;;4157572;28;20087;-64
2022/05/06 09:21:26;;;;;;;17.73;11.52;;;22.80;87.10;;;;;;4155594;28;20030;-64
2022/05/06 09:23:28;;;;;;;22.65;13.15;;;22.80;87.50;;;;;;4153243;28;20074;-64
2022/05/06 09:25:43;;;;;;;25.63;16.15;;;22.80;86.40;;;;;;4154296;28;20183;-64
2022/05/06 09:27:54;;;;;;;21.17;12.88;;;22.90;86.90;;;;;;4155589;28;20048;-64
2022/05/06 09:29:55;;;;;;;23.38;14.75;;;22.90;87.20;;;;;;4154018;28;20484;-64
2022/05/06 09:32:11;;;;;;;23.67;16.05;;;22.90;86.70;;;;;;4153626;28;20038;-64
2022/05/06 09:34:12;;;;;;;28.52;16.42;;;22.90;86.20;;;;;;4153466;28;20040;-64
2022/05/06 09:36:29;;;;;;;23.98;15.25;;;22.90;86.80;;;;;;4155171;28;20120;-64
2022/05/06 09:38:29;;;;;;;20.83;14.25;;;22.80;86.40;;;;;;4154506;28;20408;-64
2022/05/06 09:40:31;;;;;;;19.95;13.55;;;22.80;85.70;;;;;;4153554;28;20049;-64
2022/05/06 09:42:32;;;;;;;19.37;13.27;;;22.90;86.20;;;;;;4152918;28;20038;-64
2022/05/06 09:44:34;;;;;;;19.20;13.35;;;22.90;87.10;;;;;;4154183;28;20128;-64
2022/05/06 09:46:35;;;;;;;23.60;15.68;;;23.00;86.40;;;;;;4146863;28;20049;-64
2022/05/06 09:48:55;;;;;;;25.80;16.90;;;23.00;85.60;;;;;;4155087;28;20060;-64
2022/05/06 09:50:56;;;;;;;27.98;17.38;;;23.00;86.60;;;;;;4152301;28;20067;-64
2022/05/06 09:53:01;;;;;;;26.58;17.30;;;22.90;87.20;;;;;;4149591;28;20392;-64
2022/05/06 09:55:04;;;;;;;24.05;15.93;;;22.90;86.40;;;;;;4152569;28;20455;-64
2022/05/06 09:57:06;;;;;;;25.15;16.90;;;22.90;87.10;;;;;;4155916;28;20099;-64
2022/05/06 09:59:06;;;;;;;25.58;18.15;;;22.80;88.30;;;;;;4154075;28;20061;-64
2022/05/06 10:01:09;;;;;;;28.75;17.75;;;22.80;88.10;;;;;;4153606;28;20116;-64
2022/05/06 10:03:10;;;;;;;24.88;16.50;;;22.80;87.10;;;;;;4153698;28;20053;-64
2022/05/06 10:05:10;;;;;;;28.08;19.20;;;22.80;85.60;;;;;;4153293;28;20048;-64
2022/05/06 10:07:13;;;;;;;25.80;16.73;;;22.80;86.60;;;;;;4154076;28;20030;-64
2022/05/06 10:09:16;;;;;;;28.38;18.52;;;22.80;85.70;;;;;;4155675;28;20377;-64
2022/05/06 10:11:24;;;;;;;26.83;18.27;;;22.90;87.90;;;;;;4154474;28;20100;-64
2022/05/06 10:13:29;;;;;;;28.83;19.88;;;22.90;85.20;;;;;;4153296;28;20168;-64
2022/05/06 10:15:31;;;;;;;24.25;17.40;;;22.90;85.20;;;;;;4153505;28;20488;-64
2022/05/06 10:17:51;;;;;;;26.05;16.48;;;22.90;86.00;;;;;;4154993;28;20114;-65
2022/05/06 10:19:51;;;;;;;25.42;16.25;;;22.90;86.80;;;;;;4155478;28;20461;-64
2022/05/06 10:21:53;;;;;;;26.05;17.17;;;23.00;84.80;;;;;;4154261;28;20052;-64
2022/05/06 10:23:55;;;;;;;27.63;17.90;;;23.00;85.40;;;;;;4155158;28;20037;-65
2022/05/06 10:25:55;;;;;;;26.40;16.97;;;23.00;84.30;;;;;;4154914;28;20053;-64
2022/05/06 10:33:05;;;;;;;29.60;19.27;;;23.00;86.60;;;;;;4141476;28;20044;-64
2022/05/06 10:35:11;;;;;;;29.30;19.37;;;23.10;84.70;;;;;;4153134;28;20110;-64
2022/05/06 10:37:15;;;;;;;25.35;17.38;;;23.00;82.80;;;;;;4154694;28;20252;-64
2022/05/06 10:39:26;;;;;;;32.55;22.63;;;23.00;83.10;;;;;;4156498;28;20045;-64
2022/05/06 10:41:26;;;;;;;40.47;23.50;;;22.90;87.80;;;;;;4154892;28;20057;-64
2022/05/06 10:43:48;;;;;;;34.65;23.63;;;22.90;85.40;;;;;;4152744;28;20056;-64
2022/05/06 10:45:49;;;;;;;36.20;22.73;;;22.70;85.70;;;;;;4153462;28;20030;-63
2022/05/06 10:47:50;;;;;;;33.50;22.17;;;22.60;87.60;;;;;;4152385;28;20119;-64
2022/05/06 10:49:52;;;;;;;26.98;17.52;;;22.60;88.00;;;;;;4155305;28;20041;-64
2022/05/06 10:51:52;;;;;;;26.77;18.95;;;22.70;85.30;;;;;;4153186;28;22260;-64
2022/05/06 10:53:54;;;;;;;26.02;17.73;;;22.70;85.30;;;;;;4151390;28;20408;-65
2022/05/06 10:55:54;;;;;;;26.55;18.52;;;22.70;83.30;;;;;;4152727;28;20037;-64
2022/05/06 10:58:00;;;;;;;25.33;18.20;;;22.80;85.10;;;;;;4152981;28;20060;-64
2022/05/06 11:00:06;;;;;;;40.17;26.38;;;22.80;84.10;;;;;;4154838;28;20041;-64
2022/05/06 11:02:13;;;;;;;29.58;20.50;;;22.70;86.70;;;;;;4152651;28;20377;-64
2022/05/06 11:04:17;;;;;;;33.10;22.38;;;22.70;86.60;;;;;;4152771;28;20038;-64